createdAt,value
2023-04-21T00:00:31.722Z,93316.28
2023-04-21T00:01:29.991Z,93316.06
2023-04-21T00:02:27.476Z,93315.00
2023-04-21T00:03:24.654Z,93299.03
2023-04-21T00:04:21.496Z,93307.13
2023-04-21T00:05:18.510Z,93315.63
2023-04-21T00:06:22.386Z,93324.63
2023-04-21T00:07:20.280Z,93312.53
2023-04-21T00:08:18.138Z,93276.25
2023-04-21T00:09:14.677Z,93309.53
2023-04-21T00:10:11.961Z,93309.72
2023-04-21T00:11:08.776Z,93311.81
2023-04-21T00:12:05.494Z,93313.91
2023-04-21T00:13:02.026Z,93312.13
2023-04-21T00:13:58.606Z,93313.13
2023-04-21T00:14:55.345Z,93314.91
2023-04-21T00:15:51.971Z,93310.25
2023-04-21T00:16:54.412Z,93311.78
2023-04-21T00:17:51.079Z,93313.41
2023-04-21T00:18:48.067Z,93310.44
2023-04-21T00:19:45.001Z,93315.03
2023-04-21T00:20:42.801Z,93314.19
2023-04-21T00:21:39.595Z,93316.28
2023-04-21T00:22:36.472Z,93306.47
2023-04-21T00:23:33.145Z,93265.84
2023-04-21T00:24:29.760Z,93305.44
2023-04-21T00:25:26.714Z,93298.31
2023-04-21T00:26:23.302Z,93301.16
2023-04-21T00:27:20.024Z,93301.13
2023-04-21T00:28:16.726Z,93296.66
2023-04-21T00:29:13.357Z,93295.69
2023-04-21T00:30:10.574Z,93295.03
2023-04-21T00:31:07.213Z,93284.19
2023-04-21T00:32:07.032Z,93251.50
2023-04-21T00:33:03.671Z,93297.09
2023-04-21T00:34:00.292Z,93289.59
2023-04-21T00:34:56.919Z,93301.56
2023-04-21T00:35:54.547Z,93302.75
2023-04-21T00:36:51.094Z,93298.34
2023-04-21T00:37:47.651Z,93299.59
2023-04-21T00:38:44.248Z,93300.56
2023-04-21T00:39:40.975Z,93301.25
2023-04-21T00:40:37.579Z,93302.47
2023-04-21T00:41:35.412Z,93238.94
2023-04-21T00:42:31.991Z,93302.84
2023-04-21T00:43:29.122Z,93306.09
2023-04-21T00:44:25.718Z,93302.88
2023-04-21T00:45:22.430Z,93294.66
2023-04-21T00:46:19.021Z,93297.50
2023-04-21T00:47:15.688Z,93302.88
2023-04-21T00:48:12.513Z,93295.28
2023-04-21T00:49:09.466Z,93302.22
2023-04-21T00:50:06.417Z,93251.16
2023-04-21T00:51:03.083Z,93293.59
2023-04-21T00:52:00.592Z,93293.72
2023-04-21T00:52:57.666Z,93261.88
2023-04-21T00:53:55.859Z,93293.06
2023-04-21T00:54:53.448Z,93297.47
2023-04-21T00:55:50.880Z,93291.28
2023-04-21T00:56:47.592Z,93297.78
2023-04-21T00:57:44.899Z,93295.03
2023-04-21T00:58:42.618Z,93300.31
2023-04-21T00:59:39.229Z,93294.38
2023-04-21T01:00:36.560Z,93305.06
2023-04-21T01:01:34.424Z,93292.00
2023-04-21T01:02:31.285Z,93300.66
2023-04-21T01:03:28.437Z,93299.56
2023-04-21T01:04:25.752Z,93298.13
2023-04-21T01:05:23.086Z,93289.97
2023-04-21T01:06:19.931Z,93292.78
2023-04-21T01:07:16.648Z,93247.81
2023-04-21T01:08:14.317Z,93295.13
2023-04-21T01:09:12.755Z,93243.94
2023-04-21T01:10:09.693Z,93295.97
2023-04-21T01:11:11.159Z,93292.25
2023-04-21T01:12:10.624Z,93282.19
2023-04-21T01:13:07.176Z,93286.50
2023-04-21T01:14:03.754Z,93290.59
2023-04-21T01:15:00.866Z,93248.03
2023-04-21T01:15:57.485Z,93270.16
2023-04-21T01:16:54.273Z,93281.03
2023-04-21T01:17:54.093Z,93287.75
2023-04-21T01:18:52.217Z,93286.78
2023-04-21T01:19:50.524Z,93290.19
2023-04-21T01:20:47.161Z,93293.22
2023-04-21T01:21:44.269Z,93296.41
2023-04-21T01:22:42.711Z,93285.44
2023-04-21T01:23:40.571Z,93285.31
2023-04-21T01:24:45.246Z,93282.38
2023-04-21T01:25:41.804Z,93245.66
2023-04-21T01:26:38.426Z,93290.03
2023-04-21T01:27:35.326Z,93291.75
2023-04-21T01:28:32.314Z,93261.31
2023-04-21T01:29:33.136Z,93288.25
2023-04-21T01:30:29.777Z,93289.38
2023-04-21T01:31:27.441Z,93288.41
2023-04-21T01:32:29.171Z,93279.94
2023-04-21T01:33:26.072Z,93286.97
2023-04-21T01:34:22.647Z,93291.16
2023-04-21T01:35:19.480Z,93289.81
2023-04-21T01:36:16.059Z,93282.38
2023-04-21T01:37:18.023Z,93283.28
2023-04-21T01:38:19.627Z,93284.63
2023-04-21T01:39:16.518Z,93288.25
2023-04-21T01:40:13.871Z,93285.66
2023-04-21T01:41:10.916Z,93284.53
2023-04-21T01:42:08.754Z,93274.50
2023-04-21T01:43:05.986Z,93280.31
2023-04-21T01:44:02.654Z,93286.94
2023-04-21T01:45:00.006Z,93277.56
2023-04-21T01:45:56.821Z,93281.09
2023-04-21T01:46:53.492Z,93281.50
2023-04-21T01:47:50.105Z,93279.63
2023-04-21T01:48:47.007Z,93280.84
2023-04-21T01:49:43.574Z,93286.03
2023-04-21T01:50:40.236Z,93281.56
2023-04-21T01:51:36.839Z,93278.09
2023-04-21T01:52:33.410Z,93282.22
2023-04-21T01:53:30.008Z,93282.34
2023-04-21T01:54:26.646Z,93251.53
2023-04-21T01:55:23.329Z,93282.50
2023-04-21T01:56:20.332Z,93291.38
2023-04-21T01:57:17.599Z,93288.03
2023-04-21T01:58:14.258Z,93284.09
2023-04-21T01:59:10.914Z,93284.28
2023-04-21T02:00:09.299Z,93283.66
2023-04-21T02:01:05.949Z,93283.38
2023-04-21T02:02:03.122Z,93230.03
2023-04-21T02:02:59.966Z,93287.06
2023-04-21T02:03:56.759Z,93291.91
2023-04-21T02:04:53.494Z,93285.22
2023-04-21T02:05:51.257Z,93284.94
2023-04-21T02:06:47.884Z,93284.72
2023-04-21T02:07:45.003Z,93288.09
2023-04-21T02:08:41.683Z,93278.13
2023-04-21T02:09:38.403Z,93278.09
2023-04-21T02:10:35.221Z,93279.94
2023-04-21T02:11:31.858Z,93279.78
2023-04-21T02:12:28.499Z,93281.59
2023-04-21T02:13:25.111Z,93283.78
2023-04-21T02:14:21.664Z,93277.22
2023-04-21T02:15:18.349Z,93271.94
2023-04-21T02:16:14.973Z,93279.91
2023-04-21T02:17:11.825Z,93242.03
2023-04-21T02:18:08.628Z,93276.28
2023-04-21T02:19:06.364Z,93229.59
2023-04-21T02:20:04.354Z,93273.75
2023-04-21T02:21:01.019Z,93272.41
2023-04-21T02:21:57.698Z,93279.44
2023-04-21T02:22:54.264Z,93153.06
2023-04-21T02:23:52.047Z,93273.84
2023-04-21T02:24:49.815Z,93271.97
2023-04-21T02:25:46.382Z,93274.94
2023-04-21T02:26:43.046Z,93269.41
2023-04-21T02:27:39.717Z,93274.22
2023-04-21T02:28:36.312Z,93271.66
2023-04-21T02:29:32.924Z,93273.59
2023-04-21T02:30:29.520Z,93267.25
2023-04-21T02:31:26.264Z,93208.72
2023-04-21T02:32:25.909Z,93269.91
2023-04-21T02:33:23.067Z,93267.66
2023-04-21T02:34:20.718Z,93267.84
2023-04-21T02:35:17.362Z,93273.84
2023-04-21T02:36:14.009Z,93266.06
2023-04-21T02:37:10.773Z,93270.22
2023-04-21T02:38:08.968Z,93263.59
2023-04-21T02:39:05.640Z,93271.59
2023-04-21T02:40:02.201Z,93267.16
2023-04-21T02:40:58.961Z,93267.66
2023-04-21T02:41:55.666Z,93276.94
2023-04-21T02:42:52.299Z,93270.88
2023-04-21T02:43:49.397Z,93259.94
2023-04-21T02:44:46.119Z,93279.78
2023-04-21T02:45:42.773Z,93276.75
2023-04-21T02:46:42.254Z,93269.84
2023-04-21T02:47:38.888Z,93278.94
2023-04-21T02:48:36.606Z,93283.00
2023-04-21T02:49:33.340Z,93277.72
2023-04-21T02:50:30.140Z,93275.19
2023-04-21T02:51:26.935Z,93279.91
2023-04-21T02:52:23.616Z,93285.19
2023-04-21T02:53:21.137Z,93277.47
2023-04-21T02:54:17.723Z,93273.22
2023-04-21T02:55:14.432Z,93280.28
2023-04-21T02:56:11.096Z,93285.47
2023-04-21T02:57:07.813Z,93233.38
2023-04-21T02:58:04.422Z,93269.47
2023-04-21T02:59:01.039Z,93278.34
2023-04-21T02:59:57.685Z,93271.84
2023-04-21T03:00:54.335Z,93274.88
2023-04-21T03:01:51.126Z,93275.22
2023-04-21T03:02:47.848Z,93279.84
2023-04-21T03:03:44.679Z,93275.94
2023-04-21T03:04:41.475Z,93281.00
2023-04-21T03:05:38.227Z,93271.78
2023-04-21T03:06:35.060Z,93279.53
2023-04-21T03:07:31.653Z,93275.09
2023-04-21T03:08:28.679Z,93230.69
2023-04-21T03:09:25.484Z,93287.25
2023-04-21T03:10:22.316Z,93286.88
2023-04-21T03:11:18.948Z,93284.47
2023-04-21T03:12:15.753Z,93275.25
2023-04-21T03:13:12.360Z,93256.53
2023-04-21T03:14:08.948Z,93252.59
2023-04-21T03:15:06.398Z,93277.84
2023-04-21T03:16:03.445Z,93273.59
2023-04-21T03:17:00.180Z,93279.53
2023-04-21T03:17:56.964Z,93279.13
2023-04-21T03:18:53.679Z,93267.38
2023-04-21T03:19:50.282Z,93278.41
2023-04-21T03:20:46.877Z,93285.97
2023-04-21T03:21:43.543Z,93235.50
2023-04-21T03:22:40.352Z,93288.75
2023-04-21T03:23:37.285Z,93283.44
2023-04-21T03:24:33.943Z,93281.06
2023-04-21T03:25:30.671Z,93287.72
2023-04-21T03:26:27.344Z,93269.13
2023-04-21T03:27:23.959Z,93284.41
2023-04-21T03:28:20.668Z,93287.19
2023-04-21T03:29:17.443Z,93289.31
2023-04-21T03:30:14.343Z,93286.34
2023-04-21T03:31:10.941Z,93284.53
2023-04-21T03:32:07.646Z,93292.13
2023-04-21T03:33:04.847Z,93270.50
2023-04-21T03:34:01.659Z,93292.13
2023-04-21T03:34:58.343Z,93285.41
2023-04-21T03:35:54.989Z,93289.44
2023-04-21T03:36:51.574Z,93175.41
2023-04-21T03:37:49.826Z,93294.63
2023-04-21T03:38:46.462Z,93291.19
2023-04-21T03:39:43.106Z,93289.91
2023-04-21T03:40:39.736Z,93293.53
2023-04-21T03:41:36.496Z,93293.03
2023-04-21T03:42:33.146Z,93233.59
2023-04-21T03:43:29.767Z,93297.16
2023-04-21T03:44:27.274Z,93297.59
2023-04-21T03:45:24.244Z,93294.38
2023-04-21T03:46:22.383Z,93290.53
2023-04-21T03:47:19.081Z,93293.63
2023-04-21T03:48:16.081Z,93290.97
2023-04-21T03:49:12.653Z,93290.22
2023-04-21T03:50:09.419Z,93274.03
2023-04-21T03:51:06.043Z,93298.72
2023-04-21T03:52:03.146Z,93292.81
2023-04-21T03:52:59.801Z,93291.91
2023-04-21T03:53:56.361Z,93270.16
2023-04-21T03:54:52.934Z,93300.53
2023-04-21T03:55:52.786Z,93304.66
2023-04-21T03:56:49.376Z,93307.31
2023-04-21T03:57:46.066Z,93290.09
2023-04-21T03:58:42.798Z,93307.72
2023-04-21T03:59:39.358Z,93316.91
2023-04-21T04:00:35.982Z,93315.00
2023-04-21T04:01:34.721Z,93315.34
2023-04-21T04:02:31.457Z,93306.06
2023-04-21T04:03:28.229Z,93314.22
2023-04-21T04:04:25.279Z,93314.06
2023-04-21T04:05:22.075Z,93315.44
2023-04-21T04:06:18.696Z,93312.78
2023-04-21T04:07:17.618Z,93318.22
2023-04-21T04:08:14.317Z,93315.63
2023-04-21T04:09:11.084Z,93317.59
2023-04-21T04:10:07.879Z,93321.78
2023-04-21T04:11:04.594Z,93320.03
2023-04-21T04:12:03.436Z,93275.88
2023-04-21T04:13:00.208Z,93321.97
2023-04-21T04:13:56.819Z,93303.75
2023-04-21T04:14:53.497Z,93331.97
2023-04-21T04:15:50.350Z,93331.19
2023-04-21T04:16:46.995Z,93336.78
2023-04-21T04:17:43.556Z,93294.03
2023-04-21T04:18:40.603Z,93332.88
2023-04-21T04:19:37.187Z,93332.88
2023-04-21T04:20:33.764Z,93328.03
2023-04-21T04:21:32.557Z,93333.75
2023-04-21T04:22:29.146Z,93339.88
2023-04-21T04:23:26.186Z,93335.16
2023-04-21T04:24:22.798Z,93338.47
2023-04-21T04:25:19.534Z,93338.78
2023-04-21T04:26:16.219Z,93339.06
2023-04-21T04:27:15.400Z,93341.38
2023-04-21T04:28:12.771Z,93305.47
2023-04-21T04:29:10.730Z,93351.91
2023-04-21T04:30:08.076Z,93345.47
2023-04-21T04:31:04.822Z,93350.69
2023-04-21T04:32:04.264Z,93346.63
2023-04-21T04:33:01.699Z,93339.91
2023-04-21T04:33:58.373Z,93347.66
2023-04-21T04:34:58.962Z,93347.81
2023-04-21T04:35:55.504Z,93351.25
2023-04-21T04:36:52.261Z,93342.03
2023-04-21T04:37:49.801Z,93344.09
2023-04-21T04:38:46.921Z,93348.31
2023-04-21T04:39:43.575Z,93347.22
2023-04-21T04:40:40.598Z,93353.28
2023-04-21T04:41:37.955Z,93315.50
2023-04-21T04:42:34.809Z,93349.09
2023-04-21T04:43:33.598Z,93373.38
2023-04-21T04:44:30.499Z,93355.75
2023-04-21T04:45:28.645Z,93349.81
2023-04-21T04:46:25.821Z,93360.31
2023-04-21T04:47:22.454Z,93355.38
2023-04-21T04:48:19.541Z,93360.41
2023-04-21T04:49:16.626Z,93361.06
2023-04-21T04:50:13.246Z,93358.66
2023-04-21T04:51:09.838Z,93361.00
2023-04-21T04:52:07.100Z,93361.56
2023-04-21T04:53:03.694Z,93367.59
2023-04-21T04:54:00.307Z,93360.44
2023-04-21T04:54:56.981Z,93365.31
2023-04-21T04:55:53.802Z,93358.44
2023-04-21T04:56:50.508Z,93362.31
2023-04-21T04:57:47.122Z,93364.97
2023-04-21T04:58:46.483Z,93349.84
2023-04-21T04:59:43.142Z,93361.78
2023-04-21T05:00:42.047Z,93360.47
2023-04-21T05:01:40.202Z,93362.09
2023-04-21T05:02:38.448Z,93358.88
2023-04-21T05:03:35.398Z,93353.00
2023-04-21T05:04:33.737Z,93355.22
2023-04-21T05:05:30.689Z,93336.22
2023-04-21T05:06:28.556Z,93357.13
2023-04-21T05:07:25.824Z,93361.19
2023-04-21T05:08:22.393Z,93361.31
2023-04-21T05:09:19.001Z,93356.63
2023-04-21T05:10:15.731Z,93352.56
2023-04-21T05:11:12.323Z,93361.84
2023-04-21T05:12:08.988Z,93353.34
2023-04-21T05:13:05.792Z,93361.84
2023-04-21T05:14:02.454Z,93354.22
2023-04-21T05:14:59.155Z,93351.31
2023-04-21T05:15:59.142Z,93360.88
2023-04-21T05:16:56.044Z,93356.19
2023-04-21T05:17:52.823Z,93360.06
2023-04-21T05:18:53.874Z,93337.34
2023-04-21T05:19:50.854Z,93352.53
2023-04-21T05:20:47.382Z,93353.97
2023-04-21T05:21:43.970Z,93356.31
2023-04-21T05:22:41.175Z,93350.75
2023-04-21T05:23:37.792Z,93354.13
2023-04-21T05:24:34.879Z,93316.94
2023-04-21T05:25:31.524Z,93368.25
2023-04-21T05:26:29.144Z,93352.97
2023-04-21T05:27:25.707Z,93352.91
2023-04-21T05:28:23.246Z,93351.19
2023-04-21T05:29:20.001Z,93355.06
2023-04-21T05:30:16.768Z,93356.03
2023-04-21T05:31:13.510Z,93349.66
2023-04-21T05:32:12.318Z,93354.22
2023-04-21T05:33:09.559Z,93360.22
2023-04-21T05:34:06.351Z,93361.34
2023-04-21T05:35:03.114Z,93358.59
2023-04-21T05:35:59.758Z,93357.34
2023-04-21T05:36:56.567Z,93359.25
2023-04-21T05:37:53.144Z,93361.38
2023-04-21T05:38:49.737Z,93357.16
2023-04-21T05:39:46.533Z,93363.84
2023-04-21T05:40:43.267Z,93358.38
2023-04-21T05:41:42.424Z,93355.81
2023-04-21T05:42:39.451Z,93358.47
2023-04-21T05:43:36.062Z,93358.38
2023-04-21T05:44:32.620Z,93315.09
2023-04-21T05:45:29.251Z,93361.47
2023-04-21T05:46:26.016Z,93354.94
2023-04-21T05:47:22.779Z,93358.97
2023-04-21T05:48:19.649Z,93357.94
2023-04-21T05:49:16.334Z,93345.16
2023-04-21T05:50:13.124Z,93357.75
2023-04-21T05:51:11.166Z,93357.16
2023-04-21T05:52:10.502Z,93353.41
2023-04-21T05:53:07.144Z,93348.88
2023-04-21T05:54:03.866Z,93362.00
2023-04-21T05:55:01.259Z,93351.38
2023-04-21T05:55:57.849Z,93357.13
2023-04-21T05:56:54.427Z,93359.56
2023-04-21T05:57:51.123Z,93357.88
2023-04-21T05:58:47.771Z,93350.53
2023-04-21T05:59:44.471Z,93340.09
2023-04-21T06:00:42.520Z,93352.16
2023-04-21T06:01:39.124Z,93351.59
2023-04-21T06:02:35.944Z,93349.09
2023-04-21T06:03:33.527Z,93352.06
2023-04-21T06:04:30.695Z,93350.00
2023-04-21T06:05:27.654Z,93351.44
2023-04-21T06:06:27.760Z,93347.25
2023-04-21T06:07:24.398Z,93370.59
2023-04-21T06:08:21.401Z,93352.03
2023-04-21T06:09:18.103Z,93354.91
2023-04-21T06:10:14.908Z,93354.50
2023-04-21T06:11:11.598Z,93357.28
2023-04-21T06:12:08.279Z,93350.22
2023-04-21T06:13:04.898Z,93350.63
2023-04-21T06:14:01.889Z,93345.88
2023-04-21T06:14:59.308Z,93347.31
2023-04-21T06:15:55.952Z,93355.38
2023-04-21T06:16:52.555Z,93350.66
2023-04-21T06:17:54.128Z,93348.88
2023-04-21T06:18:50.750Z,93354.13
2023-04-21T06:19:52.927Z,93349.50
2023-04-21T06:20:56.718Z,93318.28
2023-04-21T06:21:53.304Z,93356.50
2023-04-21T06:22:50.543Z,93360.41
2023-04-21T06:23:47.146Z,93358.75
2023-04-21T06:24:43.752Z,93360.16
2023-04-21T06:25:40.383Z,93361.25
2023-04-21T06:26:36.953Z,93355.47
2023-04-21T06:27:33.762Z,93355.00
2023-04-21T06:28:33.682Z,93343.16
2023-04-21T06:29:30.309Z,93356.56
2023-04-21T06:30:26.898Z,93334.28
2023-04-21T06:31:23.702Z,93352.75
2023-04-21T06:32:20.495Z,93358.09
2023-04-21T06:33:17.097Z,93362.19
2023-04-21T06:34:13.718Z,93356.56
2023-04-21T06:35:10.580Z,93359.94
2023-04-21T06:36:07.647Z,93368.13
2023-04-21T06:37:04.497Z,93352.84
2023-04-21T06:38:01.088Z,93357.69
2023-04-21T06:38:57.775Z,93361.13
2023-04-21T06:39:54.456Z,93351.91
2023-04-21T06:40:51.358Z,93351.03
2023-04-21T06:41:47.947Z,93352.59
2023-04-21T06:42:44.574Z,93346.47
2023-04-21T06:43:41.481Z,93355.72
2023-04-21T06:44:39.085Z,93344.34
2023-04-21T06:45:35.659Z,93346.81
2023-04-21T06:46:32.358Z,93351.78
2023-04-21T06:47:29.027Z,93340.66
2023-04-21T06:48:26.452Z,93337.38
2023-04-21T06:49:23.210Z,93344.16
2023-04-21T06:50:19.786Z,93346.63
2023-04-21T06:51:16.380Z,93354.25
2023-04-21T06:52:13.150Z,93350.34
2023-04-21T06:53:11.677Z,93355.41
2023-04-21T06:54:08.326Z,93319.91
2023-04-21T06:55:05.821Z,93348.25
2023-04-21T06:56:03.289Z,93357.00
2023-04-21T06:56:59.978Z,93355.22
2023-04-21T06:57:56.595Z,93356.94
2023-04-21T06:58:53.410Z,93341.09
2023-04-21T06:59:49.988Z,93352.75
2023-04-21T07:00:46.552Z,93348.84
2023-04-21T07:01:43.165Z,93338.19
2023-04-21T07:02:39.870Z,93340.63
2023-04-21T07:03:36.776Z,93338.63
2023-04-21T07:04:33.545Z,93345.03
2023-04-21T07:05:30.353Z,93339.69
2023-04-21T07:06:27.252Z,93337.91
2023-04-21T07:07:23.879Z,93329.53
2023-04-21T07:08:20.465Z,93336.81
2023-04-21T07:09:17.256Z,93338.47
2023-04-21T07:10:19.155Z,93334.81
2023-04-21T07:11:15.804Z,93326.94
2023-04-21T07:12:12.409Z,93334.31
2023-04-21T07:13:10.104Z,93333.44
2023-04-21T07:14:06.919Z,93335.66
2023-04-21T07:15:03.986Z,93332.53
2023-04-21T07:16:00.722Z,93335.97
2023-04-21T07:16:57.493Z,93333.34
2023-04-21T07:17:54.240Z,93332.56
2023-04-21T07:18:50.851Z,93339.16
2023-04-21T07:19:47.558Z,93338.13
2023-04-21T07:20:44.343Z,93345.13
2023-04-21T07:21:40.963Z,93345.41
2023-04-21T07:22:37.666Z,93337.78
2023-04-21T07:23:34.224Z,93335.25
2023-04-21T07:24:31.181Z,93339.94
2023-04-21T07:25:27.797Z,93322.88
2023-04-21T07:26:24.736Z,93333.66
2023-04-21T07:27:21.376Z,93330.19
2023-04-21T07:28:18.041Z,93342.63
2023-04-21T07:29:14.602Z,93335.72
2023-04-21T07:30:11.686Z,93336.50
2023-04-21T07:31:08.320Z,93334.41
2023-04-21T07:32:04.911Z,93331.88
2023-04-21T07:33:01.561Z,93329.22
2023-04-21T07:33:58.227Z,93336.81
2023-04-21T07:34:54.882Z,93331.34
2023-04-21T07:35:51.496Z,93336.63
2023-04-21T07:36:48.191Z,93329.59
2023-04-21T07:37:44.820Z,93329.38
2023-04-21T07:38:43.520Z,93326.81
2023-04-21T07:39:40.114Z,93327.06
2023-04-21T07:40:36.753Z,93218.78
2023-04-21T07:41:33.664Z,93301.34
2023-04-21T07:42:30.524Z,93324.47
2023-04-21T07:43:27.313Z,93284.84
2023-04-21T07:44:24.098Z,93332.69
2023-04-21T07:45:21.009Z,93333.34
2023-04-21T07:46:17.763Z,93331.00
2023-04-21T07:47:14.704Z,93320.53
2023-04-21T07:48:11.339Z,93338.34
2023-04-21T07:49:08.256Z,93333.78
2023-04-21T07:50:05.299Z,93331.09
2023-04-21T07:51:03.395Z,93327.44
2023-04-21T07:52:00.003Z,93330.88
2023-04-21T07:52:56.739Z,93328.34
2023-04-21T07:53:53.988Z,93329.25
2023-04-21T07:54:51.210Z,93343.59
2023-04-21T07:55:47.748Z,93336.47
2023-04-21T07:56:44.320Z,93338.72
2023-04-21T07:57:41.030Z,93329.28
2023-04-21T07:58:37.647Z,93335.25
2023-04-21T07:59:34.299Z,93338.53
2023-04-21T08:00:31.125Z,93340.03
2023-04-21T08:01:27.882Z,93344.22
2023-04-21T08:02:24.513Z,93341.75
2023-04-21T08:03:23.822Z,93342.44
2023-04-21T08:04:21.204Z,93340.66
2023-04-21T08:05:18.498Z,93342.56
2023-04-21T08:06:15.544Z,93336.38
2023-04-21T08:07:13.821Z,93329.94
2023-04-21T08:08:10.622Z,93343.00
2023-04-21T08:09:07.441Z,93339.50
2023-04-21T08:10:04.315Z,93335.19
2023-04-21T08:11:01.492Z,93334.41
2023-04-21T08:11:58.191Z,93334.81
2023-04-21T08:12:54.806Z,93338.13
2023-04-21T08:13:51.624Z,93320.91
2023-04-21T08:14:49.637Z,93329.69
2023-04-21T08:15:46.346Z,93335.03
2023-04-21T08:16:43.232Z,93305.56
2023-04-21T08:17:40.058Z,93330.09
2023-04-21T08:18:36.753Z,93322.63
2023-04-21T08:19:33.449Z,93334.41
2023-04-21T08:20:30.339Z,93329.63
2023-04-21T08:21:27.963Z,93327.66
2023-04-21T08:22:25.638Z,93296.88
2023-04-21T08:23:22.340Z,93329.88
2023-04-21T08:24:19.279Z,93332.09
2023-04-21T08:25:16.159Z,93334.44
2023-04-21T08:26:13.311Z,93331.59
2023-04-21T08:27:10.132Z,93330.50
2023-04-21T08:28:06.961Z,93329.63
2023-04-21T08:29:05.542Z,93277.13
2023-04-21T08:30:02.183Z,93334.81
2023-04-21T08:31:00.493Z,93322.41
2023-04-21T08:31:57.192Z,93335.88
2023-04-21T08:32:54.016Z,93332.78
2023-04-21T08:34:01.305Z,93325.59
2023-04-21T08:34:58.857Z,93339.25
2023-04-21T08:36:58.195Z,93327.72
2023-04-21T08:37:54.809Z,93329.50
2023-04-21T08:38:51.457Z,93326.16
2023-04-21T08:39:50.894Z,93329.28
2023-04-21T08:40:48.042Z,93321.53
2023-04-21T08:41:44.805Z,93272.25
2023-04-21T08:42:41.953Z,93332.41
2023-04-21T08:43:40.675Z,93334.81
2023-04-21T08:44:37.470Z,93333.13
2023-04-21T08:45:35.101Z,93333.75
2023-04-21T08:46:33.551Z,93330.03
2023-04-21T08:47:32.225Z,93281.75
2023-04-21T08:48:29.889Z,93329.19
2023-04-21T08:49:30.942Z,93299.00
2023-04-21T08:50:29.715Z,93328.00
2023-04-21T08:51:28.787Z,93324.25
2023-04-21T08:52:25.646Z,93323.28
2023-04-21T08:53:22.423Z,93322.81
2023-04-21T08:54:19.022Z,93320.09
2023-04-21T08:55:16.115Z,93325.47
2023-04-21T08:56:12.664Z,93322.00
2023-04-21T08:57:15.449Z,93320.78
2023-04-21T08:58:13.467Z,93307.22
2023-04-21T08:59:10.179Z,93297.94
2023-04-21T09:00:08.174Z,93314.97
2023-04-21T09:01:05.448Z,93313.34
2023-04-21T09:02:16.786Z,93315.41
2023-04-21T09:03:24.926Z,93296.94
2023-04-21T09:04:22.571Z,93301.94
2023-04-21T09:05:31.015Z,93311.44
2023-04-21T09:06:41.459Z,93309.53
2023-04-21T09:07:41.527Z,93306.53
2023-04-21T09:08:42.187Z,93301.69
2023-04-21T09:09:52.526Z,93305.88
2023-04-21T09:10:50.801Z,93306.75
2023-04-21T09:11:58.916Z,93306.31
2023-04-21T09:12:56.074Z,93303.72
2023-04-21T09:13:57.089Z,93310.66
2023-04-21T09:14:54.197Z,93300.28
2023-04-21T09:15:54.112Z,93308.34
2023-04-21T09:17:01.218Z,93303.69
2023-04-21T09:17:57.961Z,93304.59
2023-04-21T09:18:54.735Z,93306.81
2023-04-21T09:19:51.496Z,93303.06
2023-04-21T09:20:50.843Z,93302.63
2023-04-21T09:21:47.467Z,93304.53
2023-04-21T09:22:44.937Z,93305.31
2023-04-21T09:23:45.503Z,93301.50
2023-04-21T09:24:49.519Z,93305.75
2023-04-21T09:25:46.201Z,93299.22
2023-04-21T09:26:42.914Z,93298.41
2023-04-21T09:27:41.642Z,93293.41
2023-04-21T09:28:44.781Z,93263.91
2023-04-21T09:29:48.180Z,93282.53
2023-04-21T09:30:45.201Z,93291.69
2023-04-21T09:31:44.449Z,93296.03
2023-04-21T09:32:41.763Z,93291.91
2023-04-21T09:33:49.596Z,93294.22
2023-04-21T09:35:01.017Z,93297.69
2023-04-21T09:36:01.570Z,93300.38
2023-04-21T09:37:05.117Z,93301.91
2023-04-21T09:38:12.408Z,93294.94
2023-04-21T09:40:12.834Z,93297.59
2023-04-21T09:41:09.435Z,93267.31
2023-04-21T09:42:06.609Z,93294.97
2023-04-21T09:43:03.342Z,93296.16
2023-04-21T09:44:04.723Z,93303.00
2023-04-21T09:45:28.436Z,93297.56
2023-04-21T09:46:19.694Z,93296.75
2023-04-21T09:47:17.040Z,93294.00
2023-04-21T09:48:17.573Z,93288.16
2023-04-21T09:49:17.560Z,93293.28
2023-04-21T09:50:16.338Z,93298.59
2023-04-21T09:51:28.733Z,93290.41
2023-04-21T09:52:33.759Z,93268.38
2023-04-21T09:53:35.145Z,93286.75
2023-04-21T09:54:33.124Z,93290.22
2023-04-21T09:55:31.247Z,93286.91
2023-04-21T09:56:30.256Z,93289.53
2023-04-21T09:57:28.916Z,93284.94
2023-04-21T09:58:31.408Z,93284.38
2023-04-21T09:59:35.589Z,93295.56
2023-04-21T10:00:33.583Z,93296.06
2023-04-21T10:01:30.930Z,93296.09
2023-04-21T10:02:31.398Z,93258.84
2023-04-21T10:03:29.865Z,93300.31
2023-04-21T10:04:29.411Z,93209.13
2023-04-21T10:05:26.630Z,93292.75
2023-04-21T10:06:23.570Z,93295.44
2023-04-21T10:07:20.201Z,93284.25
2023-04-21T10:08:17.450Z,93256.72
2023-04-21T10:09:18.419Z,93290.72
2023-04-21T10:10:28.345Z,93289.97
2023-04-21T10:11:25.035Z,93286.03
2023-04-21T10:12:22.772Z,93259.03
2023-04-21T10:13:19.544Z,93279.53
2023-04-21T10:14:16.232Z,93269.72
2023-04-21T10:15:32.574Z,93288.56
2023-04-21T10:16:29.324Z,93283.22
2023-04-21T10:17:26.892Z,93290.06
2023-04-21T10:18:25.270Z,93292.25
2023-04-21T10:19:27.039Z,93298.72
2023-04-21T10:20:23.611Z,93291.91
2023-04-21T10:21:22.195Z,93294.88
2023-04-21T10:22:30.045Z,93288.31
2023-04-21T10:23:33.047Z,93287.91
2023-04-21T10:24:30.874Z,93285.56
2023-04-21T10:25:29.759Z,93236.06
2023-04-21T10:26:32.637Z,93285.09
2023-04-21T10:27:34.737Z,93288.53
2023-04-21T10:29:00.215Z,93288.25
2023-04-21T10:29:58.655Z,93283.47
2023-04-21T10:31:33.712Z,93287.06
2023-04-21T10:32:43.414Z,93289.50
2023-04-21T10:33:40.049Z,93286.97
2023-04-21T10:34:41.256Z,93291.94
2023-04-21T10:36:00.243Z,93291.53
2023-04-21T10:36:57.297Z,93290.47
2023-04-21T10:37:54.070Z,93291.53
2023-04-21T10:38:57.231Z,93294.78
2023-04-21T10:39:55.532Z,93284.97
2023-04-21T10:40:52.117Z,93286.56
2023-04-21T10:41:48.729Z,93282.50
2023-04-21T10:42:45.384Z,93282.25
2023-04-21T10:43:49.255Z,93279.53
2023-04-21T10:44:56.513Z,93280.47
2023-04-21T10:45:55.864Z,93276.72
2023-04-21T10:46:54.021Z,93282.22
2023-04-21T10:47:53.049Z,93263.97
2023-04-21T10:48:52.965Z,93250.78
2023-04-21T10:49:50.098Z,93278.19
2023-04-21T10:50:48.866Z,93276.81
2023-04-21T10:52:03.440Z,93283.31
2023-04-21T10:53:10.300Z,93284.44
2023-04-21T10:54:06.939Z,93278.19
2023-04-21T10:55:04.032Z,93283.50
2023-04-21T10:56:01.087Z,93283.53
2023-04-21T10:56:59.327Z,93285.97
2023-04-21T10:57:56.389Z,93292.56
2023-04-21T10:58:53.450Z,93292.44
2023-04-21T10:59:50.106Z,93287.81
2023-04-21T11:00:46.994Z,93284.66
2023-04-21T11:01:43.639Z,93292.38
2023-04-21T11:02:41.863Z,93283.34
2023-04-21T11:03:41.210Z,93288.59
2023-04-21T11:04:45.274Z,93286.34
2023-04-21T11:05:42.603Z,93284.91
2023-04-21T11:06:39.274Z,93294.13
2023-04-21T11:07:36.020Z,93287.09
2023-04-21T11:08:32.596Z,93292.81
2023-04-21T11:09:29.271Z,93277.00
2023-04-21T11:10:25.881Z,93280.47
2023-04-21T11:11:27.122Z,93271.63
2023-04-21T11:12:47.106Z,93276.03
2023-04-21T11:13:43.699Z,93237.78
2023-04-21T11:14:41.908Z,93280.13
2023-04-21T11:15:40.918Z,93292.66
2023-04-21T11:16:38.102Z,93271.66
2023-04-21T11:17:36.261Z,93269.22
2023-04-21T11:18:43.981Z,93276.03
2023-04-21T11:19:40.753Z,93228.47
2023-04-21T11:20:41.647Z,93282.22
2023-04-21T11:21:38.565Z,93283.41
2023-04-21T11:22:37.259Z,93275.97